createdAt,value
2018-07-10T00:02:18.122Z,100.00
2018-07-10T00:07:04.963Z,100.00
2018-07-10T00:12:07.254Z,100.00
2018-07-10T00:14:36.119Z,100.00
2018-07-10T00:17:04.990Z,100.00
2018-07-10T00:19:34.258Z,100.00
2018-07-10T00:22:03.348Z,100.00
2018-07-10T00:24:32.915Z,100.00
2018-07-10T00:27:02.246Z,100.00
2018-07-10T00:29:31.181Z,100.00
2018-07-10T00:32:00.206Z,100.00
2018-07-10T00:34:29.066Z,100.00
2018-07-10T00:36:58.234Z,100.00
2018-07-10T00:39:27.365Z,100.00
2018-07-10T00:41:56.718Z,100.00
2018-07-10T00:44:26.172Z,100.00
2018-07-10T00:46:55.015Z,100.00
2018-07-10T00:49:24.518Z,100.00
2018-07-10T00:51:53.295Z,100.00
2018-07-10T00:54:22.855Z,100.00
2018-07-10T00:56:51.898Z,100.00
2018-07-10T00:59:20.742Z,100.00
2018-07-10T01:01:49.837Z,100.00
2018-07-10T01:04:19.935Z,100.00
2018-07-10T01:06:49.112Z,100.00
2018-07-10T01:09:18.379Z,100.00
2018-07-10T01:11:48.046Z,100.00
2018-07-10T01:14:16.727Z,100.00
2018-07-10T01:16:46.043Z,100.00
2018-07-10T01:19:16.787Z,100.00
2018-07-10T01:21:46.541Z,99.53
2018-07-10T01:24:18.203Z,99.92
2018-07-10T01:26:48.386Z,100.00
2018-07-10T01:29:22.886Z,100.00
2018-07-10T01:31:53.399Z,100.00
2018-07-10T01:34:23.079Z,100.00
2018-07-10T01:36:53.293Z,100.00
2018-07-10T01:39:22.884Z,100.00
2018-07-10T01:41:51.951Z,100.00
2018-07-10T01:44:21.422Z,100.00
2018-07-10T01:46:50.476Z,100.00
2018-07-10T01:49:19.608Z,100.00
2018-07-10T01:51:49.018Z,100.00
2018-07-10T01:54:18.640Z,100.00
2018-07-10T01:56:47.457Z,100.00
2018-07-10T01:59:17.215Z,100.00
2018-07-10T02:01:46.319Z,100.00
2018-07-10T02:04:15.358Z,100.00
2018-07-10T02:06:44.421Z,100.00
2018-07-10T02:09:13.512Z,100.00
2018-07-10T02:11:42.352Z,100.00
2018-07-10T02:14:11.439Z,100.00
2018-07-10T02:16:40.419Z,100.00
2018-07-10T02:19:09.299Z,100.00
2018-07-10T02:21:38.826Z,100.00
2018-07-10T02:24:07.999Z,100.00
2018-07-10T02:26:37.206Z,100.00
2018-07-10T02:29:06.730Z,100.00
2018-07-10T02:31:35.811Z,100.00
2018-07-10T02:34:04.715Z,100.00
2018-07-10T02:36:34.027Z,100.00
2018-07-10T02:39:03.186Z,100.00
2018-07-10T02:41:31.934Z,100.00
2018-07-10T02:44:04.716Z,100.00
2018-07-10T02:46:35.786Z,100.00
2018-07-10T02:49:10.747Z,100.00
2018-07-10T02:52:00.226Z,100.00
2018-07-10T02:54:31.716Z,100.00
2018-07-10T02:57:00.851Z,100.00
2018-07-10T02:59:38.521Z,100.00
2018-07-10T03:02:24.776Z,100.00
2018-07-10T03:05:02.471Z,100.00
2018-07-10T03:07:31.849Z,100.00
2018-07-10T03:10:02.408Z,100.00
2018-07-10T03:12:35.340Z,100.00
2018-07-10T03:15:09.606Z,100.00
2018-07-10T03:17:38.617Z,100.00
2018-07-10T03:20:08.350Z,100.00
2018-07-10T03:22:37.502Z,100.00
2018-07-10T03:25:07.390Z,100.00
2018-07-10T03:27:36.266Z,100.00
2018-07-10T03:30:06.053Z,99.91
2018-07-10T03:32:35.555Z,99.26
2018-07-10T03:35:04.409Z,98.47
2018-07-10T03:37:33.377Z,97.52
2018-07-10T03:40:02.951Z,98.14
2018-07-10T03:42:32.147Z,94.97
2018-07-10T03:45:00.951Z,91.53
2018-07-10T03:47:30.021Z,84.91
2018-07-10T03:49:59.166Z,81.89
2018-07-10T03:52:33.164Z,79.38
2018-07-10T03:55:08.372Z,79.79
2018-07-10T03:57:37.990Z,80.08
2018-07-10T04:00:09.457Z,80.54
2018-07-10T04:02:42.615Z,78.05
2018-07-10T04:05:11.358Z,72.54
2018-07-10T04:07:40.524Z,74.02
2018-07-10T04:10:10.228Z,74.64
2018-07-10T04:12:39.310Z,74.69
2018-07-10T04:15:09.139Z,75.44
2018-07-10T04:17:46.929Z,76.61
2018-07-10T04:20:17.246Z,76.08
2018-07-10T04:22:52.871Z,75.38
2018-07-10T04:25:26.462Z,78.19
2018-07-10T04:28:02.587Z,78.03
2018-07-10T04:30:41.785Z,78.83
2018-07-10T04:33:11.660Z,78.55
2018-07-10T04:35:40.619Z,79.24
2018-07-10T04:38:09.873Z,80.38
2018-07-10T04:40:39.750Z,80.33
2018-07-10T04:43:12.824Z,81.59
2018-07-10T04:45:43.987Z,81.37
2018-07-10T04:48:35.414Z,81.28
2018-07-10T04:51:44.973Z,82.24
2018-07-10T04:54:22.025Z,80.54
2018-07-10T04:57:14.871Z,80.31
2018-07-10T04:59:44.191Z,79.95
2018-07-10T05:02:14.051Z,78.89
2018-07-10T05:04:43.410Z,77.62
2018-07-10T05:07:12.666Z,76.74
2018-07-10T05:09:43.230Z,76.90
2018-07-10T05:12:12.385Z,77.55
2018-07-10T05:14:44.219Z,76.47
2018-07-10T05:17:15.575Z,75.49
2018-07-10T05:19:44.931Z,75.09
2018-07-10T05:22:13.818Z,75.67
2018-07-10T05:24:43.332Z,73.98
2018-07-10T05:27:12.343Z,74.54
2018-07-10T05:29:41.430Z,76.15
2018-07-10T05:32:11.670Z,76.39
2018-07-10T05:34:41.791Z,77.25
2018-07-10T05:37:13.107Z,77.61
2018-07-10T05:39:43.995Z,77.20
2018-07-10T05:42:13.823Z,77.44
2018-07-10T05:44:43.585Z,76.85
2018-07-10T05:47:12.763Z,77.13
2018-07-10T05:49:42.485Z,77.26
2018-07-10T05:52:13.165Z,76.52
2018-07-10T05:54:43.554Z,75.24
2018-07-10T05:57:13.261Z,75.59
2018-07-10T05:59:42.441Z,77.03
2018-07-10T06:02:11.363Z,76.44
2018-07-10T06:04:40.465Z,75.90
2018-07-10T06:07:09.675Z,76.65
2018-07-10T06:09:38.748Z,76.00
2018-07-10T06:12:08.166Z,75.55
2018-07-10T06:14:37.936Z,76.72
2018-07-10T06:17:07.578Z,74.82
2018-07-10T06:19:36.556Z,74.40
2018-07-10T06:22:05.515Z,74.28
2018-07-10T06:24:34.454Z,73.93
2018-07-10T06:27:05.932Z,72.81
2018-07-10T06:29:51.903Z,72.36
2018-07-10T06:32:22.356Z,71.67
2018-07-10T06:34:57.375Z,71.14
2018-07-10T06:37:31.756Z,70.16
2018-07-10T06:40:02.223Z,70.57
2018-07-10T06:42:45.044Z,68.95
2018-07-10T06:45:14.242Z,69.37
2018-07-10T06:47:47.637Z,67.26
2018-07-10T06:50:18.835Z,66.27
2018-07-10T06:52:49.104Z,63.60
2018-07-10T06:55:19.671Z,63.84
2018-07-10T06:57:56.340Z,62.45
2018-07-10T07:00:25.871Z,62.83
2018-07-10T07:02:55.223Z,60.84
2018-07-10T07:05:24.375Z,59.97
2018-07-10T07:07:53.254Z,60.50
2018-07-10T07:10:22.203Z,58.79
2018-07-10T07:12:51.426Z,57.66
2018-07-10T07:15:21.111Z,56.01
2018-07-10T07:17:52.480Z,52.74
2018-07-10T07:20:22.372Z,49.85
2018-07-10T07:22:51.569Z,48.96
2018-07-10T07:25:21.097Z,47.75
2018-07-10T07:27:50.103Z,49.07
2018-07-10T07:30:19.416Z,48.44
2018-07-10T07:32:49.403Z,49.42
2018-07-10T07:35:18.364Z,48.38
2018-07-10T07:37:47.575Z,43.68
2018-07-10T07:40:16.984Z,43.26
2018-07-10T07:42:46.098Z,43.81
2018-07-10T07:45:14.924Z,42.41
2018-07-10T07:47:44.613Z,43.22
2018-07-10T07:50:13.643Z,41.14
2018-07-10T07:52:42.707Z,40.03
2018-07-10T07:55:11.781Z,36.81
2018-07-10T07:57:40.980Z,37.95
2018-07-10T08:00:10.500Z,34.95
2018-07-10T08:02:40.025Z,32.79
2018-07-10T08:05:09.295Z,32.58
2018-07-10T08:07:38.597Z,34.36
2018-07-10T08:10:08.162Z,35.06
2018-07-10T08:12:38.731Z,36.35
2018-07-10T08:15:08.227Z,39.40
2018-07-10T08:17:37.767Z,43.28
2018-07-10T08:20:07.619Z,48.73
2018-07-10T08:22:36.967Z,51.57
2018-07-10T08:25:06.926Z,53.54
2018-07-10T08:27:38.234Z,55.58
2018-07-10T08:30:08.170Z,56.31
2018-07-10T08:32:38.175Z,52.62
2018-07-10T08:35:07.689Z,49.74
2018-07-10T08:37:36.882Z,47.96
2018-07-10T08:40:06.191Z,46.21
2018-07-10T08:42:35.588Z,46.19
2018-07-10T08:45:05.524Z,49.35
2018-07-10T08:47:35.133Z,50.28
2018-07-10T08:50:04.739Z,51.00
2018-07-10T08:52:34.016Z,49.10
2018-07-10T08:55:03.234Z,48.82
2018-07-10T08:57:32.535Z,44.41
2018-07-10T09:00:02.039Z,40.79
2018-07-10T09:02:31.344Z,40.70
2018-07-10T09:05:00.839Z,45.33
2018-07-10T09:07:30.023Z,48.93
2018-07-10T09:09:59.211Z,53.11
2018-07-10T09:12:28.798Z,55.19
2018-07-10T09:14:57.943Z,54.74
2018-07-10T09:17:28.198Z,57.29
2018-07-10T09:19:59.256Z,56.64
2018-07-10T09:22:28.683Z,57.10
2018-07-10T09:24:58.564Z,56.20
2018-07-10T09:27:28.095Z,54.56
2018-07-10T09:29:57.237Z,52.92
2018-07-10T09:32:31.759Z,50.54
2018-07-10T09:35:00.939Z,50.35
2018-07-10T09:37:36.869Z,50.46
2018-07-10T09:40:11.144Z,50.19
2018-07-10T09:42:47.477Z,50.91
2018-07-10T09:45:16.639Z,49.41
2018-07-10T09:47:45.856Z,47.76
2018-07-10T09:50:15.277Z,48.45
2018-07-10T09:52:44.422Z,47.27
2018-07-10T09:55:13.756Z,47.16
2018-07-10T09:57:44.658Z,45.60
2018-07-10T10:00:13.922Z,44.47
2018-07-10T10:02:43.102Z,42.33
2018-07-10T10:05:12.636Z,40.97
2018-07-10T10:07:41.819Z,41.13
2018-07-10T10:10:10.913Z,39.58
2018-07-10T10:12:40.164Z,39.27
2018-07-10T10:15:09.441Z,40.46
2018-07-10T10:17:38.610Z,46.94
2018-07-10T10:20:07.684Z,49.45
2018-07-10T10:22:37.994Z,51.56
2018-07-10T10:25:07.111Z,54.19
2018-07-10T10:27:36.622Z,55.70
2018-07-10T10:30:09.095Z,55.77
2018-07-10T10:32:38.832Z,55.67
2018-07-10T10:35:08.097Z,55.61
2018-07-10T10:37:37.267Z,54.70
2018-07-10T10:40:06.729Z,54.12
2018-07-10T10:42:35.927Z,55.83
2018-07-10T10:45:05.157Z,54.75
2018-07-10T10:47:35.187Z,55.32
2018-07-10T10:50:04.328Z,56.36
2018-07-10T10:52:33.660Z,55.55
2018-07-10T10:55:03.422Z,55.91
2018-07-10T10:57:37.976Z,55.47
2018-07-10T11:00:07.778Z,53.51
2018-07-10T11:02:37.261Z,54.19
2018-07-10T11:05:16.431Z,53.64
2018-07-10T11:07:45.589Z,52.99
2018-07-10T11:10:14.757Z,52.48
2018-07-10T11:12:44.290Z,50.51
2018-07-10T11:15:13.463Z,50.26
2018-07-10T11:18:25.280Z,49.71
2018-07-10T11:20:56.963Z,50.62
2018-07-10T11:23:38.985Z,51.42
2018-07-10T11:26:13.104Z,51.71
2018-07-10T11:28:42.382Z,50.78
2018-07-10T11:31:11.593Z,50.89
2018-07-10T11:33:40.981Z,52.73
2018-07-10T11:36:10.641Z,54.20
2018-07-10T11:38:39.855Z,54.96
2018-07-10T11:41:09.067Z,55.81
2018-07-10T11:43:40.316Z,55.36
2018-07-10T11:46:09.471Z,55.31
2018-07-10T11:48:38.698Z,54.67
2018-07-10T11:51:08.130Z,53.15
2018-07-10T11:53:37.732Z,53.37
2018-07-10T11:56:06.707Z,52.40
2018-07-10T11:58:35.779Z,54.04
2018-07-10T12:01:04.925Z,51.91
2018-07-10T12:03:42.556Z,51.73
2018-07-10T12:06:12.011Z,52.12
2018-07-10T12:08:41.361Z,51.33
2018-07-10T12:11:17.007Z,50.37
2018-07-10T12:13:46.370Z,48.43
2018-07-10T12:16:15.694Z,50.58
2018-07-10T12:18:45.040Z,51.82
2018-07-10T12:21:16.907Z,52.03
2018-07-10T12:23:46.686Z,52.57
2018-07-10T12:26:15.975Z,54.83
2018-07-10T12:28:45.266Z,54.26
2018-07-10T12:31:14.826Z,54.33
2018-07-10T12:33:44.047Z,54.64
2018-07-10T12:36:12.730Z,53.71
2018-07-10T12:38:42.222Z,53.81
2018-07-10T12:41:11.152Z,52.54
2018-07-10T12:43:39.961Z,53.75
2018-07-10T12:46:09.435Z,53.46
2018-07-10T12:48:39.664Z,53.02
2018-07-10T12:51:08.782Z,53.86
2018-07-10T12:53:38.590Z,55.59
2018-07-10T12:56:07.812Z,55.77
2018-07-10T12:59:42.928Z,55.37
2018-07-10T13:02:11.890Z,55.29
2018-07-10T13:04:41.150Z,56.05
2018-07-10T13:07:10.783Z,55.64
2018-07-10T13:09:39.995Z,56.03
2018-07-10T13:12:09.241Z,55.44
2018-07-10T13:14:38.978Z,56.23
2018-07-10T13:17:08.033Z,56.68
2018-07-10T13:19:39.074Z,56.76
2018-07-10T13:22:08.681Z,55.48
2018-07-10T13:24:37.773Z,56.59
2018-07-10T13:27:06.981Z,56.69
2018-07-10T13:29:36.220Z,57.34
2018-07-10T13:32:05.186Z,56.79
2018-07-10T13:34:34.379Z,56.24
2018-07-10T13:37:03.571Z,57.31
2018-07-10T13:39:32.774Z,56.71
2018-07-10T13:42:01.641Z,58.25
2018-07-10T13:44:31.034Z,56.91
2018-07-10T13:46:59.807Z,56.81
2018-07-10T13:49:28.945Z,54.88
2018-07-10T13:51:58.576Z,55.48
2018-07-10T13:54:27.859Z,54.96
2018-07-10T13:56:56.886Z,54.65
2018-07-10T13:59:27.489Z,53.78
2018-07-10T14:01:57.175Z,53.90
2018-07-10T14:04:26.779Z,51.51
2018-07-10T14:06:55.687Z,52.63
2018-07-10T14:09:24.873Z,50.43
2018-07-10T14:11:54.681Z,50.41
2018-07-10T14:14:24.313Z,52.07
2018-07-10T14:16:53.283Z,53.75
2018-07-10T14:19:22.277Z,54.49
2018-07-10T14:21:51.899Z,54.93
2018-07-10T14:24:20.851Z,55.68
2018-07-10T14:26:49.775Z,54.67
2018-07-10T14:29:19.694Z,53.92
2018-07-10T14:31:48.882Z,53.78
2018-07-10T14:34:17.829Z,53.45
2018-07-10T14:36:47.237Z,54.55
2018-07-10T14:39:16.880Z,56.35
2018-07-10T14:41:45.899Z,57.49
2018-07-10T14:44:15.525Z,58.67
2018-07-10T14:46:44.539Z,58.98
2018-07-10T14:49:13.608Z,59.39
2018-07-10T14:51:46.310Z,59.79
2018-07-10T14:54:15.621Z,57.79
2018-07-10T14:56:44.885Z,58.01
2018-07-10T14:59:14.591Z,56.73
2018-07-10T15:01:43.891Z,57.61
2018-07-10T15:04:13.013Z,56.89
2018-07-10T15:06:42.211Z,55.04
2018-07-10T15:09:11.298Z,54.76
2018-07-10T15:11:41.557Z,53.71
2018-07-10T15:14:11.779Z,53.77
2018-07-10T15:16:45.950Z,54.69
2018-07-10T15:19:17.345Z,55.24
2018-07-10T15:21:46.214Z,56.03
2018-07-10T15:24:15.599Z,53.83
2018-07-10T15:26:44.709Z,54.93
2018-07-10T15:29:17.753Z,54.66
2018-07-10T15:31:46.898Z,55.35
2018-07-10T15:34:16.169Z,57.27
2018-07-10T15:36:45.346Z,56.24
2018-07-10T15:39:15.013Z,57.49
2018-07-10T15:41:44.169Z,57.32
2018-07-10T15:44:13.893Z,57.65
2018-07-10T15:46:43.232Z,58.36
2018-07-10T15:49:12.286Z,58.24
2018-07-10T15:51:42.315Z,57.46
2018-07-10T15:54:11.863Z,58.16
2018-07-10T15:56:41.845Z,58.31
2018-07-10T15:59:10.822Z,58.31
2018-07-10T16:01:39.924Z,58.07
2018-07-10T16:04:09.846Z,58.07
2018-07-10T16:06:39.034Z,58.83
2018-07-10T16:09:16.972Z,58.62
2018-07-10T16:11:46.446Z,58.42
2018-07-10T16:14:15.541Z,57.82
2018-07-10T16:16:46.914Z,58.31
2018-07-10T16:19:18.544Z,58.82
2018-07-10T16:21:54.885Z,59.16
2018-07-10T16:24:24.028Z,60.09
2018-07-10T16:26:54.263Z,61.38
2018-07-10T16:29:25.091Z,60.86
2018-07-10T16:34:23.666Z,61.72
2018-07-10T16:36:53.090Z,62.30
2018-07-10T16:39:22.038Z,61.66
2018-07-10T16:41:56.618Z,61.71
2018-07-10T16:44:25.851Z,62.20
2018-07-10T16:47:19.580Z,61.09
2018-07-10T16:49:48.779Z,61.41
2018-07-10T16:52:36.004Z,62.18
2018-07-10T16:55:05.112Z,62.62
2018-07-10T16:57:34.318Z,62.42
2018-07-10T17:00:03.624Z,63.03
2018-07-10T17:02:32.483Z,63.09
2018-07-10T17:05:01.662Z,63.15
2018-07-10T17:07:30.778Z,62.32
2018-07-10T17:09:59.720Z,62.66
2018-07-10T17:12:28.817Z,63.17
2018-07-10T17:14:59.464Z,62.88
2018-07-10T17:17:28.542Z,63.11
2018-07-10T17:19:57.727Z,63.54
2018-07-10T17:22:27.282Z,63.71
2018-07-10T17:24:56.875Z,64.48
2018-07-10T17:27:34.851Z,65.35
2018-07-10T17:30:04.907Z,65.91
2018-07-10T17:32:35.350Z,66.17
2018-07-10T17:35:05.037Z,66.14
2018-07-10T17:37:40.669Z,66.26
2018-07-10T17:40:09.679Z,66.78
2018-07-10T17:42:39.266Z,67.53
2018-07-10T17:45:11.589Z,67.70
2018-07-10T17:47:40.554Z,68.59
2018-07-10T17:50:09.836Z,69.20
2018-07-10T17:52:38.950Z,69.33
2018-07-10T17:55:07.937Z,69.81
2018-07-10T17:57:36.921Z,70.23
2018-07-10T18:00:06.327Z,70.70
2018-07-10T18:02:35.526Z,70.25
2018-07-10T18:05:04.570Z,70.79
2018-07-10T18:07:33.748Z,71.20
2018-07-10T18:10:02.925Z,71.80
2018-07-10T18:12:32.016Z,72.12
2018-07-10T18:15:01.568Z,72.01
2018-07-10T18:17:30.567Z,73.02
2018-07-10T18:19:59.593Z,73.43
2018-07-10T18:22:29.036Z,74.28
2018-07-10T18:24:58.215Z,73.96
2018-07-10T18:27:27.051Z,74.64
2018-07-10T18:29:57.208Z,74.47
2018-07-10T18:32:26.190Z,74.41
2018-07-10T18:34:55.115Z,74.84
2018-07-10T18:37:24.039Z,74.69
2018-07-10T18:39:53.292Z,74.43
2018-07-10T18:42:22.396Z,74.47
2018-07-10T18:44:51.727Z,74.79
2018-07-10T18:47:21.075Z,74.81
2018-07-10T18:49:53.738Z,74.33
2018-07-10T18:52:27.892Z,74.01
2018-07-10T18:54:58.743Z,73.82
2018-07-10T18:57:44.423Z,74.34
2018-07-10T19:00:13.860Z,74.39
2018-07-10T19:03:06.715Z,73.85
2018-07-10T19:05:44.562Z,74.51
2018-07-10T19:08:13.496Z,74.35
2018-07-10T19:10:44.855Z,74.15
2018-07-10T19:13:15.336Z,75.27
2018-07-10T19:15:45.478Z,75.44
2018-07-10T19:18:15.508Z,75.05
2018-07-10T19:20:59.787Z,74.84
2018-07-10T19:23:49.942Z,75.37
2018-07-10T19:26:24.118Z,75.41
2018-07-10T19:28:58.619Z,75.89
2018-07-10T19:31:31.744Z,75.20
2018-07-10T19:34:01.576Z,75.15
2018-07-10T19:36:30.481Z,75.26
2018-07-10T19:39:00.738Z,75.45
2018-07-10T19:41:30.338Z,75.80
2018-07-10T19:43:59.367Z,75.67
2018-07-10T19:46:28.985Z,75.17
2018-07-10T19:48:58.505Z,75.21
2018-07-10T19:51:29.175Z,75.30
2018-07-10T19:54:07.178Z,76.28
2018-07-10T19:56:36.736Z,75.98
2018-07-10T19:59:06.891Z,75.54
2018-07-10T20:01:53.055Z,74.76
2018-07-10T20:04:42.071Z,75.11
2018-07-10T20:07:15.897Z,75.92
2018-07-10T20:09:48.776Z,76.07
2018-07-10T20:12:20.112Z,75.30
2018-07-10T20:14:57.998Z,74.93
2018-07-10T20:17:29.447Z,74.65
2018-07-10T20:20:10.551Z,75.11
2018-07-10T20:22:48.999Z,74.94
2018-07-10T20:25:35.223Z,74.77
2018-07-10T20:28:41.954Z,74.90
2018-07-10T20:31:14.603Z,74.79
2018-07-10T20:33:52.587Z,75.66
2018-07-10T20:36:23.366Z,74.93
2018-07-10T20:38:54.103Z,75.47
2018-07-10T20:41:26.727Z,75.84
2018-07-10T20:43:55.773Z,75.57
2018-07-10T20:46:26.679Z,75.43
2018-07-10T20:48:58.617Z,74.79
2018-07-10T20:51:33.706Z,74.73
2018-07-10T20:54:28.352Z,75.28
2018-07-10T20:57:04.500Z,75.36
2018-07-10T20:59:44.499Z,76.64
2018-07-10T21:02:24.382Z,76.14
2018-07-10T21:05:10.345Z,76.19
2018-07-10T21:08:00.789Z,76.01
2018-07-10T21:10:49.943Z,75.64
2018-07-10T21:13:32.392Z,75.54
2018-07-10T21:16:10.585Z,76.04
2018-07-10T21:18:56.219Z,75.94
2018-07-10T21:21:40.903Z,76.95
2018-07-10T21:24:22.771Z,76.18
2018-07-10T21:27:00.299Z,76.94
2018-07-10T21:31:07.102Z,77.95
2018-07-10T21:33:44.780Z,77.53
2018-07-10T21:36:22.380Z,77.01
2018-07-10T21:39:02.148Z,77.06
2018-07-10T21:41:46.644Z,76.82
2018-07-10T21:44:38.623Z,77.38
2018-07-10T21:47:17.486Z,78.01
2018-07-10T21:49:54.329Z,78.44
2018-07-10T21:52:23.839Z,79.21
2018-07-10T21:54:52.967Z,79.46
2018-07-10T21:57:28.607Z,79.79
2018-07-10T21:59:58.164Z,79.79
2018-07-10T22:02:27.215Z,80.26
2018-07-10T22:04:58.378Z,80.76
2018-07-10T22:07:28.627Z,80.32
2018-07-10T22:10:07.016Z,81.02
2018-07-10T22:12:44.349Z,80.02
2018-07-10T22:15:13.983Z,80.10
2018-07-10T22:17:44.001Z,81.14
2018-07-10T22:20:13.271Z,81.99
2018-07-10T22:22:42.683Z,81.91
2018-07-10T22:25:11.752Z,81.58
2018-07-10T22:27:42.780Z,81.92
2018-07-10T22:30:19.422Z,81.92
2018-07-10T22:32:54.155Z,82.27
2018-07-10T22:35:24.230Z,82.71
2018-07-10T22:37:53.507Z,83.22
2018-07-10T22:40:22.467Z,82.16
2018-07-10T22:42:51.456Z,81.68
2018-07-10T22:45:20.780Z,81.16
2018-07-10T22:47:50.643Z,81.60
2018-07-10T22:50:22.808Z,81.59
2018-07-10T22:52:53.836Z,81.79
2018-07-10T22:55:25.444Z,82.27
2018-07-10T22:57:55.799Z,82.43
2018-07-10T23:00:30.791Z,81.93
2018-07-10T23:03:00.827Z,82.20
2018-07-10T23:05:29.902Z,82.94
2018-07-10T23:07:59.367Z,83.09
2018-07-10T23:10:28.900Z,83.66
2018-07-10T23:12:58.000Z,84.48
2018-07-10T23:15:27.819Z,84.88
2018-07-10T23:17:56.858Z,85.43
2018-07-10T23:20:25.906Z,85.17
2018-07-10T23:22:56.936Z,86.00
2018-07-10T23:25:27.259Z,86.30
2018-07-10T23:28:04.171Z,86.31
2018-07-10T23:30:37.133Z,86.82
2018-07-10T23:33:08.250Z,87.28
2018-07-10T23:35:38.530Z,87.90
2018-07-10T23:38:19.567Z,87.94
2018-07-10T23:40:48.743Z,88.35
2018-07-10T23:43:17.783Z,88.04
2018-07-10T23:45:47.214Z,88.89
2018-07-10T23:48:16.311Z,89.41
2018-07-10T23:50:45.806Z,90.27
2018-07-10T23:53:52.465Z,90.54
2018-07-10T23:56:21.767Z,91.08
2018-07-10T23:58:51.025Z,91.37
